Airfield :
LOGIN :

Register | Disclaimer

   EN    FR    IT 

 










Legend :    VFR   Marginal VFR   IFR   Intensive IFR   Very Intensive IFR
Visi :
Ceiling :
>= 8 km
>= 3000ft
5 to 8 km
1000 to 3000 ft
1500m to 5 km
500 to 1000 ft
800 to 1500m
200 to 500 ft
< 800m
< 200 ft
Symbols :   Thunderstorms  Fog  Heavy snow  Heavy precipitations  Wind > 20 kt
SIGMETs :     Misc.  Thunderstorms  Icing  Turbulence  Mountain Waves  Volcanic Ashes







- Airport Elevation : 102 ft
- IATA code : EXT
- Download approach charts


EGTE - Exeter

CURRENT METAR :
  • 160620Z 18010KT 9999 VCSH FEW008 SCT025 14/13 Q1013

EXPIRED METARs :
  • 160550Z 20009KT 9999 VCSH FEW008 SCT025 13/13 Q1013
  • 160520Z 19009KT 9999 FEW008 SCT025 13/13 Q1013
  • 160450Z 19011KT 9999 SCT015 SCT025 13/12 Q1013
  • 160420Z 18007KT 9999 FEW006 SCT015 13/13 Q1013

TAF TAF EGTE
Valid from the 16 at 06:00 until the 16 at 15:00 UTC


160458Z 1606/1615 19009KT 9999 FEW035
TEMPO 1606/1612 6000 SHRA BKN008
PROB30
TEMPO 1609/1615 19015G25KT
No reported NOTAMs for that airfield.



MET'MAP, your aeronautical weather chart ! - Copyright ORBIFLY December 2007 - Disclaimer

ORBIFLY MET'MAP TEAM :

Programming & Development : Alexandra Zaïnal
Concept & Development : Baudouin d'Aumeries
Co-Development & Prog : Marc-Olivier Méhu
Technical & hardware support : Manuel Goepfert

Contact : metmap@orbifly.com




SOURCES & CREDITS :

   NOAA